Aviation Digital Data Service (ADDS)

Output produced by METARs form (0815 UTC 24 May 2018)
found at http://www.aviationweather.gov/adds/metars/
 
HKEL 240800Z 03003KT 9999 FEW020CB BKN080 21/12 Q1027
TAF HKEL 240500Z 2406/2506 15005KT 9999 FEW018CB BKN080 
     BECMG 2408/2411 22010KT FEW021CB SCT022 BKN080 
     TEMPO 2412/2418 VRB10KT -TSRA FEW018CB SCT019 BKN080 
     BECMG 2420/2423 14005KT FEW019CB BKN080 
     TEMPO 2500/2506 -RA FEW017CB BKN080
       
HKJK 240800Z 21007KT 9999 BKN021 20/15 Q1024
TAF HKJK 240500Z 2406/2512 22005KT 9999 FEW009 SCT015 
     BECMG 2408/2411 16010KT BKN026 
     TEMPO 2412/2418 -RA FEW023CB SCT024 BKN080 
     BECMG 2420/2423 06005KT SCT024 BKN070 
     TEMPO 2500/2506 18005KT -RA FEW005 SCT016 BKN080 
     BECMG 2508/2511 16010KT BKN026
       
HKKI 240700Z 29003KT 9999 FEW021 BKN090 23/17 Q1020
TAF HKKI 240500Z 2406/2506 00000KT 9999 FEW020CB BKN080 
     BECMG 2408/2411 22010KT FEW024CB BKN100 
     TEMPO 2412/2418 VRB10KT -TSRA FEW021CB BKN022 BKN080 
     BECMG 2420/2423 06005KT FEW020CB BKN080 
     TEMPO 2500/2506 -RA FEW019CB BKN080
       
HKML 240700Z 19015KT 9999 SCT024TCU 29/24 Q1015
HKMO 240800Z 21013KT 9999 BKN024 30/23 Q1015 NOSIG
TAF HKMO 240500Z 2406/2512 20010KT 9999 FEW025 
     BECMG 2412/2418 18010KT FEW023 
     BECMG 2421/2424 21005KT FEW021 
     BECMG 2503/2506 23005KT FEW019 
     BECMG 2509/2512 20010KT SCT025
       
HKNW 240700Z 19007KT 9999 BKN020 18/14 Q1024
HKWJ 240600Z 18008KT 9999 BKN024 27/22 Q1014